createdAt,value
2023-03-29T00:01:07.532Z,10.50
2023-03-29T00:03:36.794Z,10.20
2023-03-29T00:06:05.847Z,10.20
2023-03-29T00:08:34.414Z,10.70
2023-03-29T00:11:03.081Z,12.20
2023-03-29T00:13:31.799Z,10.60
2023-03-29T00:16:00.216Z,10.20
2023-03-29T00:18:28.772Z,11.20
2023-03-29T00:20:58.277Z,10.40
2023-03-29T00:23:26.844Z,10.90
2023-03-29T00:25:56.607Z,14.10
2023-03-29T00:28:25.368Z,10.00
2023-03-29T00:31:03.894Z,11.40
2023-03-29T00:33:33.253Z,11.50
2023-03-29T00:36:02.131Z,9.60
2023-03-29T00:38:31.546Z,9.90
2023-03-29T00:41:00.644Z,8.70
2023-03-29T00:43:29.374Z,10.20
2023-03-29T00:45:57.733Z,11.30
2023-03-29T00:48:30.332Z,10.90
2023-03-29T00:51:10.347Z,10.20
2023-03-29T00:53:44.528Z,9.30
2023-03-29T00:56:19.635Z,10.60
2023-03-29T00:58:57.469Z,12.20
2023-03-29T01:01:34.257Z,10.50
2023-03-29T01:04:18.939Z,11.10
2023-03-29T01:06:55.677Z,8.70
2023-03-29T01:09:27.470Z,12.10
2023-03-29T01:11:59.394Z,10.70
2023-03-29T01:15:03.791Z,11.30
2023-03-29T01:17:33.320Z,8.20
2023-03-29T01:20:27.257Z,12.00
2023-03-29T01:23:14.368Z,9.30
2023-03-29T01:26:10.057Z,10.00
2023-03-29T01:29:17.917Z,9.20
2023-03-29T01:31:51.865Z,8.40
2023-03-29T01:34:27.533Z,11.80
2023-03-29T01:37:04.745Z,10.10
2023-03-29T01:39:35.178Z,9.50
2023-03-29T01:42:14.683Z,10.60
2023-03-29T01:44:52.355Z,9.60
2023-03-29T01:47:23.857Z,10.30
2023-03-29T01:50:22.149Z,8.80
2023-03-29T01:53:03.587Z,8.10
2023-03-29T01:55:36.125Z,9.80
2023-03-29T01:58:08.586Z,8.90
2023-03-29T02:00:38.675Z,9.20
2023-03-29T02:03:10.584Z,12.40
2023-03-29T02:08:12.130Z,8.90
2023-03-29T02:10:40.767Z,11.50
2023-03-29T02:13:09.451Z,9.20
2023-03-29T02:15:38.735Z,10.60
2023-03-29T02:18:07.312Z,10.30
2023-03-29T02:20:39.288Z,9.30
2023-03-29T02:23:29.041Z,9.50
2023-03-29T02:25:57.921Z,9.40
2023-03-29T02:28:28.391Z,7.70
2023-03-29T02:31:09.187Z,10.70
2023-03-29T02:33:47.665Z,12.80
2023-03-29T02:36:22.843Z,17.70
2023-03-29T02:38:53.537Z,13.20
2023-03-29T02:41:25.745Z,13.30
2023-03-29T02:43:57.242Z,12.10
2023-03-29T02:46:26.430Z,9.60
2023-03-29T02:48:57.689Z,8.00
2023-03-29T02:51:32.299Z,12.10
2023-03-29T02:54:06.815Z,14.20
2023-03-29T02:57:06.558Z,12.30
2023-03-29T02:59:36.016Z,11.10
2023-03-29T03:02:05.575Z,10.90
2023-03-29T03:04:35.706Z,11.90
2023-03-29T03:07:07.301Z,11.80
2023-03-29T03:09:35.962Z,13.90
2023-03-29T03:12:04.472Z,11.20
2023-03-29T03:14:32.846Z,8.70
2023-03-29T03:17:04.442Z,7.90
2023-03-29T03:19:34.135Z,8.70
2023-03-29T03:22:03.373Z,9.60
2023-03-29T03:24:32.808Z,8.60
2023-03-29T03:27:01.872Z,8.90
2023-03-29T03:29:30.429Z,10.90
2023-03-29T03:31:59.091Z,7.00
2023-03-29T03:34:57.136Z,9.90
2023-03-29T03:37:27.794Z,6.80
2023-03-29T03:39:56.714Z,8.70
2023-03-29T03:42:30.747Z,10.40
2023-03-29T03:44:59.415Z,7.20
2023-03-29T03:47:43.350Z,8.00
2023-03-29T03:52:53.495Z,9.00
2023-03-29T03:55:22.244Z,6.80
2023-03-29T04:00:23.707Z,7.20
2023-03-29T04:03:06.288Z,8.70
2023-03-29T04:05:40.101Z,7.80
2023-03-29T04:08:09.079Z,8.80
2023-03-29T04:10:58.569Z,7.50
2023-03-29T04:13:36.403Z,8.00
2023-03-29T04:16:27.886Z,9.60
2023-03-29T04:18:57.583Z,9.60
2023-03-29T04:21:26.333Z,12.30
2023-03-29T04:23:55.037Z,9.30
2023-03-29T04:26:24.081Z,9.00
2023-03-29T04:28:59.004Z,9.20
2023-03-29T04:31:48.676Z,7.30
2023-03-29T04:34:38.125Z,7.30
2023-03-29T04:37:10.802Z,9.40
2023-03-29T04:39:40.002Z,9.90
2023-03-29T04:42:09.702Z,9.80
2023-03-29T04:44:38.152Z,10.40
2023-03-29T04:47:07.618Z,12.50
2023-03-29T04:49:58.428Z,9.80
2023-03-29T04:52:36.364Z,8.00
2023-03-29T04:55:07.261Z,9.80
2023-03-29T04:57:53.812Z,10.00
2023-03-29T05:00:29.446Z,8.90
2023-03-29T05:02:58.200Z,11.40
2023-03-29T05:05:27.198Z,8.90
2023-03-29T05:07:56.076Z,12.30
2023-03-29T05:10:29.162Z,9.90
2023-03-29T05:12:58.485Z,9.30
2023-03-29T05:15:27.370Z,10.20
2023-03-29T05:17:56.375Z,13.80
2023-03-29T05:20:25.233Z,8.80
2023-03-29T05:22:56.387Z,12.60
2023-03-29T05:25:51.657Z,9.50
2023-03-29T05:28:20.143Z,15.20
2023-03-29T05:31:00.261Z,11.90
2023-03-29T05:33:29.579Z,13.10
2023-03-29T05:36:04.206Z,12.20
2023-03-29T05:38:35.941Z,11.70
2023-03-29T05:41:04.675Z,14.50
2023-03-29T05:43:42.801Z,16.20
2023-03-29T05:46:12.484Z,11.30
2023-03-29T05:48:44.256Z,15.70
2023-03-29T05:51:13.208Z,10.10
2023-03-29T05:53:41.853Z,12.10
2023-03-29T05:56:11.437Z,13.20
2023-03-29T05:58:39.961Z,10.40
2023-03-29T06:01:15.059Z,11.70
2023-03-29T06:03:51.353Z,11.60
2023-03-29T06:06:21.472Z,11.00
2023-03-29T06:08:50.747Z,11.50
2023-03-29T06:11:26.602Z,11.40
2023-03-29T06:14:13.976Z,11.60
2023-03-29T06:16:47.566Z,11.50
2023-03-29T06:19:16.184Z,15.40
2023-03-29T06:21:44.841Z,12.30
2023-03-29T06:24:15.971Z,10.60
2023-03-29T06:26:48.232Z,12.30
2023-03-29T06:29:17.212Z,11.30
2023-03-29T06:31:47.789Z,12.60
2023-03-29T06:34:33.098Z,10.00
2023-03-29T06:37:11.622Z,10.10
2023-03-29T06:39:41.266Z,14.20
2023-03-29T06:42:27.246Z,13.60
2023-03-29T06:45:14.421Z,9.50
2023-03-29T06:47:47.373Z,11.60
2023-03-29T06:50:17.600Z,13.70
2023-03-29T06:53:06.381Z,10.20
2023-03-29T06:55:36.215Z,10.20
2023-03-29T06:58:20.871Z,10.20
2023-03-29T07:00:49.677Z,9.20
2023-03-29T07:03:25.426Z,10.50
2023-03-29T07:06:04.638Z,10.20
2023-03-29T07:08:35.361Z,9.80
2023-03-29T07:11:08.828Z,7.20
2023-03-29T07:13:49.317Z,7.50
2023-03-29T07:16:20.704Z,11.30
2023-03-29T07:18:57.610Z,10.20
2023-03-29T07:21:58.944Z,9.50
2023-03-29T07:24:44.551Z,6.30
2023-03-29T07:27:13.690Z,6.30
2023-03-29T07:29:42.294Z,6.60
2023-03-29T07:32:10.876Z,11.80
2023-03-29T07:34:46.672Z,20.00
2023-03-29T07:37:39.857Z,7.00
2023-03-29T07:40:16.151Z,6.30
2023-03-29T07:43:09.534Z,9.00
2023-03-29T07:45:40.865Z,9.50
2023-03-29T07:48:11.496Z,7.30
2023-03-29T07:50:48.697Z,12.70
2023-03-29T07:53:17.582Z,7.20
2023-03-29T07:55:49.371Z,6.70
2023-03-29T07:58:38.115Z,17.10
2023-03-29T08:01:08.690Z,7.50
2023-03-29T08:04:09.954Z,7.70
2023-03-29T08:06:57.177Z,6.80
2023-03-29T08:09:32.216Z,7.50
2023-03-29T08:12:00.806Z,6.40
2023-03-29T08:14:34.830Z,6.30
2023-03-29T08:17:07.893Z,5.30
2023-03-29T08:19:41.791Z,9.00
2023-03-29T08:22:22.634Z,6.90
2023-03-29T08:25:17.028Z,6.90
2023-03-29T08:30:23.436Z,9.50
2023-03-29T08:32:55.152Z,8.50
2023-03-29T08:35:24.453Z,6.60
2023-03-29T08:38:05.726Z,9.10
2023-03-29T08:40:35.109Z,11.00
2023-03-29T08:43:38.054Z,8.00
2023-03-29T08:46:57.104Z,5.80
2023-03-29T08:49:34.425Z,9.50
2023-03-29T08:52:13.448Z,6.10
2023-03-29T08:54:46.703Z,6.50
2023-03-29T08:57:33.817Z,6.10
2023-03-29T09:00:10.806Z,7.00
2023-03-29T09:02:42.980Z,6.00
2023-03-29T09:05:14.784Z,4.90
2023-03-29T09:07:46.307Z,8.60
2023-03-29T09:10:18.433Z,7.00
2023-03-29T09:13:02.854Z,7.80
2023-03-29T09:15:42.550Z,5.80
2023-03-29T09:18:45.474Z,7.50
2023-03-29T09:21:26.828Z,10.40
2023-03-29T09:24:15.859Z,6.50
2023-03-29T09:26:54.991Z,6.30
2023-03-29T09:29:52.486Z,8.20
2023-03-29T09:32:33.250Z,8.70
2023-03-29T09:35:38.839Z,6.70
2023-03-29T09:38:12.643Z,7.20
2023-03-29T09:40:50.077Z,6.40
2023-03-29T09:43:38.149Z,6.30
2023-03-29T09:46:37.433Z,7.30
2023-03-29T09:49:11.172Z,8.10
2023-03-29T09:51:42.103Z,5.20
2023-03-29T09:54:12.651Z,9.40
2023-03-29T09:57:20.424Z,4.00
2023-03-29T09:59:52.735Z,5.90
2023-03-29T10:02:21.971Z,4.30
2023-03-29T10:05:04.080Z,3.20
2023-03-29T10:10:35.622Z,6.00
2023-03-29T10:13:16.755Z,7.60
2023-03-29T10:15:45.311Z,4.20
2023-03-29T10:18:14.309Z,2.70
2023-03-29T10:20:42.800Z,5.00
2023-03-29T10:23:18.833Z,4.30
2023-03-29T10:25:47.660Z,8.20
2023-03-29T10:28:18.784Z,3.50
2023-03-29T10:30:54.383Z,3.60
2023-03-29T10:33:24.823Z,2.70
2023-03-29T10:35:57.596Z,6.00
2023-03-29T10:38:29.500Z,3.70
2023-03-29T10:41:12.545Z,4.70
2023-03-29T10:43:49.525Z,6.10
2023-03-29T10:46:30.643Z,4.50
2023-03-29T10:49:16.065Z,6.30
2023-03-29T10:51:47.247Z,4.10
2023-03-29T10:54:20.562Z,3.50
2023-03-29T10:57:01.585Z,3.10
2023-03-29T11:00:02.666Z,3.40
2023-03-29T11:02:31.702Z,3.90
2023-03-29T11:05:16.589Z,3.20
2023-03-29T11:07:47.586Z,4.40
2023-03-29T11:10:43.620Z,3.70
2023-03-29T11:13:41.343Z,4.20
2023-03-29T11:16:18.846Z,4.10
2023-03-29T11:19:20.735Z,3.40
2023-03-29T11:22:11.098Z,4.90
2023-03-29T11:25:06.852Z,5.50
2023-03-29T11:28:09.753Z,5.20
2023-03-29T11:30:40.871Z,4.80
2023-03-29T11:33:15.103Z,5.90
2023-03-29T11:36:04.853Z,3.80
2023-03-29T11:38:45.220Z,4.00
2023-03-29T11:41:39.092Z,6.00
2023-03-29T11:44:19.574Z,2.80
2023-03-29T11:47:23.288Z,4.10
2023-03-29T11:49:58.191Z,3.60
2023-03-29T11:52:47.479Z,3.50
2023-03-29T11:55:26.243Z,6.90
2023-03-29T11:58:00.129Z,3.70
2023-03-29T12:00:39.040Z,4.20
2023-03-29T12:03:14.478Z,3.00
2023-03-29T12:05:50.932Z,3.70
2023-03-29T12:08:23.930Z,7.40
2023-03-29T12:10:56.860Z,2.60
2023-03-29T12:13:32.486Z,3.80
2023-03-29T12:16:16.786Z,3.90
2023-03-29T12:18:58.457Z,3.40
2023-03-29T12:21:30.265Z,3.50
2023-03-29T12:24:01.084Z,3.10
2023-03-29T12:26:33.879Z,3.90
2023-03-29T12:29:27.192Z,5.00
2023-03-29T12:32:36.474Z,4.10
2023-03-29T12:35:49.776Z,3.40
2023-03-29T12:38:46.169Z,3.00
2023-03-29T12:41:37.919Z,4.50
2023-03-29T12:44:25.155Z,3.40
2023-03-29T12:47:25.955Z,3.70
2023-03-29T12:49:59.809Z,4.00
2023-03-29T12:52:36.467Z,4.20
2023-03-29T12:55:47.055Z,3.00
2023-03-29T12:58:38.975Z,3.20
2023-03-29T13:04:00.850Z,3.30
2023-03-29T13:06:34.531Z,2.90
2023-03-29T13:09:23.251Z,4.00
2023-03-29T13:11:53.787Z,2.80
2023-03-29T13:14:30.130Z,3.10
2023-03-29T13:19:45.071Z,3.70
2023-03-29T13:22:19.332Z,3.70
2023-03-29T13:25:15.773Z,3.60
2023-03-29T13:27:44.188Z,2.70
2023-03-29T13:30:45.549Z,3.40
2023-03-29T13:33:37.191Z,4.00
2023-03-29T13:36:08.986Z,5.40
2023-03-29T13:38:53.621Z,3.70
2023-03-29T13:41:33.910Z,6.30
2023-03-29T13:44:02.692Z,7.00
2023-03-29T13:46:43.707Z,5.10
2023-03-29T13:49:14.734Z,3.80
2023-03-29T13:51:54.817Z,4.00
2023-03-29T13:54:43.103Z,3.70
2023-03-29T13:57:19.103Z,3.70
2023-03-29T14:00:18.347Z,4.10
2023-03-29T14:03:01.819Z,4.10
2023-03-29T14:05:37.565Z,4.00
2023-03-29T14:08:22.001Z,4.00
2023-03-29T14:10:51.033Z,3.90
2023-03-29T14:13:23.332Z,4.90
2023-03-29T14:15:55.447Z,3.70
2023-03-29T14:18:26.821Z,4.10
2023-03-29T14:20:56.284Z,5.40
2023-03-29T14:23:27.461Z,4.30
2023-03-29T14:26:06.230Z,3.60
2023-03-29T14:28:34.815Z,4.00
2023-03-29T14:31:03.720Z,4.00
2023-03-29T14:33:38.194Z,5.20
2023-03-29T14:36:07.210Z,6.50
2023-03-29T14:38:37.727Z,6.10
2023-03-29T14:41:06.544Z,4.00
2023-03-29T14:43:34.977Z,4.60
2023-03-29T14:46:06.462Z,5.40
2023-03-29T14:51:05.327Z,6.20
2023-03-29T14:53:37.343Z,7.70
2023-03-29T14:56:07.804Z,5.90
2023-03-29T14:58:36.916Z,4.90
2023-03-29T15:01:10.882Z,6.30
2023-03-29T15:03:44.193Z,5.90
2023-03-29T15:06:14.151Z,6.20
2023-03-29T15:08:54.106Z,6.10
2023-03-29T15:11:30.940Z,8.00
2023-03-29T15:14:08.914Z,9.40
2023-03-29T15:16:40.879Z,5.10
2023-03-29T15:19:27.557Z,7.00
2023-03-29T15:21:56.017Z,8.20
2023-03-29T15:24:31.216Z,4.10
2023-03-29T15:27:14.842Z,5.70
2023-03-29T15:29:46.511Z,7.40
2023-03-29T15:32:22.860Z,6.90
2023-03-29T15:35:08.140Z,8.60
2023-03-29T15:37:37.064Z,9.40
2023-03-29T15:40:09.880Z,5.20
2023-03-29T15:42:38.410Z,5.40
2023-03-29T15:45:07.484Z,7.00
2023-03-29T15:47:35.887Z,5.00
2023-03-29T15:50:04.531Z,7.50
2023-03-29T15:52:33.055Z,4.60
2023-03-29T15:55:01.633Z,7.00
2023-03-29T15:57:30.590Z,6.00
2023-03-29T15:59:59.304Z,6.30
2023-03-29T16:02:28.204Z,4.70
2023-03-29T16:04:56.752Z,6.20
2023-03-29T16:07:25.515Z,8.50
2023-03-29T16:09:53.857Z,15.90
2023-03-29T16:12:23.209Z,5.50
2023-03-29T16:14:51.772Z,4.60
2023-03-29T16:17:20.057Z,6.70
2023-03-29T16:19:48.349Z,6.80
2023-03-29T16:22:16.740Z,8.20
2023-03-29T16:24:45.086Z,5.70
2023-03-29T16:27:13.635Z,5.80
2023-03-29T16:29:42.213Z,5.90
2023-03-29T16:32:11.235Z,6.20
2023-03-29T16:34:41.488Z,6.20
2023-03-29T16:37:09.990Z,8.00
2023-03-29T16:39:38.491Z,7.40
2023-03-29T16:42:07.328Z,6.60
2023-03-29T16:44:35.852Z,12.70
2023-03-29T16:47:04.474Z,7.70
2023-03-29T16:49:32.844Z,5.40
2023-03-29T16:52:01.281Z,6.20
2023-03-29T16:54:31.828Z,10.40
2023-03-29T16:57:00.494Z,8.20
2023-03-29T16:59:28.833Z,6.90
2023-03-29T17:01:57.368Z,6.10
2023-03-29T17:04:26.510Z,9.80
2023-03-29T17:06:54.945Z,10.80
2023-03-29T17:09:23.301Z,9.20
2023-03-29T17:11:51.725Z,13.50
2023-03-29T17:14:20.554Z,14.90
2023-03-29T17:16:48.876Z,14.30
2023-03-29T17:19:17.315Z,13.20
2023-03-29T17:21:46.110Z,13.10
2023-03-29T17:24:14.576Z,19.20
2023-03-29T17:26:45.151Z,17.40
2023-03-29T17:29:14.267Z,26.60
2023-03-29T17:31:47.931Z,33.50
2023-03-29T17:34:19.192Z,31.30
2023-03-29T17:36:47.547Z,25.00
2023-03-29T17:39:16.173Z,19.40
2023-03-29T17:41:46.162Z,20.20
2023-03-29T17:44:14.516Z,24.80
2023-03-29T17:46:46.463Z,30.60
2023-03-29T17:49:15.194Z,29.20
2023-03-29T17:51:43.693Z,23.60
2023-03-29T17:54:13.001Z,22.40
2023-03-29T17:56:41.750Z,20.10
2023-03-29T17:59:10.095Z,22.10
2023-03-29T18:01:42.039Z,35.20
2023-03-29T18:04:10.644Z,33.60
2023-03-29T18:06:39.080Z,25.60
2023-03-29T18:09:07.880Z,21.20
2023-03-29T18:11:37.233Z,17.60
2023-03-29T18:14:05.804Z,18.40
2023-03-29T18:16:34.670Z,17.20
2023-03-29T18:19:03.370Z,15.10
2023-03-29T18:21:31.893Z,17.90
2023-03-29T18:24:00.535Z,18.80
2023-03-29T18:26:30.164Z,18.40
2023-03-29T18:28:58.900Z,16.10
2023-03-29T18:31:28.227Z,18.60
2023-03-29T18:33:57.044Z,17.30
2023-03-29T18:36:25.924Z,14.60
2023-03-29T18:38:55.992Z,11.20
2023-03-29T18:41:25.077Z,14.90
2023-03-29T18:43:58.057Z,12.60
2023-03-29T18:46:30.596Z,12.80
2023-03-29T18:49:00.275Z,9.90
2023-03-29T18:51:29.395Z,11.20
2023-03-29T18:53:57.839Z,15.20
2023-03-29T18:56:26.720Z,11.40
2023-03-29T18:58:55.230Z,13.30
2023-03-29T19:01:23.945Z,13.40
2023-03-29T19:03:52.446Z,17.00
2023-03-29T19:06:21.083Z,23.60
2023-03-29T19:08:49.422Z,27.60
2023-03-29T19:11:18.041Z,43.20
2023-03-29T19:13:50.243Z,39.40
2023-03-29T19:18:47.056Z,8.30
2023-03-29T19:21:15.903Z,8.80
2023-03-29T19:23:44.412Z,30.10
2023-03-29T19:26:13.553Z,29.10
2023-03-29T19:28:42.236Z,18.20
2023-03-29T19:31:10.995Z,11.10
2023-03-29T19:33:40.930Z,20.90
2023-03-29T19:36:09.794Z,12.40
2023-03-29T19:38:38.822Z,11.20
2023-03-29T19:41:09.737Z,8.40
2023-03-29T19:43:38.246Z,7.50
2023-03-29T19:46:09.699Z,11.10
2023-03-29T19:48:39.433Z,8.80
2023-03-29T19:51:08.129Z,9.40
2023-03-29T19:53:38.642Z,9.00
2023-03-29T19:56:10.963Z,6.40
2023-03-29T19:58:40.031Z,10.30
2023-03-29T20:01:08.598Z,8.10
2023-03-29T20:03:36.983Z,7.20
2023-03-29T20:06:05.881Z,7.20
2023-03-29T20:08:38.898Z,7.60
2023-03-29T20:11:10.646Z,7.60
2023-03-29T20:13:42.958Z,6.80
2023-03-29T20:16:13.964Z,7.60
2023-03-29T20:18:45.022Z,6.10
2023-03-29T20:21:16.943Z,6.40
2023-03-29T20:26:14.368Z,6.90
2023-03-29T20:28:43.055Z,10.40
2023-03-29T20:31:11.399Z,42.00
2023-03-29T20:33:41.523Z,56.00
2023-03-29T20:36:11.384Z,91.60
2023-03-29T20:38:39.882Z,83.50
2023-03-29T20:41:09.525Z,36.90
2023-03-29T20:43:38.395Z,6.60
2023-03-29T20:46:22.997Z,5.60
2023-03-29T20:48:54.461Z,6.90
2023-03-29T20:51:33.252Z,6.50
2023-03-29T20:54:05.068Z,7.80
2023-03-29T20:56:40.055Z,10.30
2023-03-29T20:59:12.466Z,7.70
2023-03-29T21:01:41.218Z,8.10
2023-03-29T21:04:11.075Z,8.10
2023-03-29T21:06:39.812Z,6.60
2023-03-29T21:09:08.708Z,9.60
2023-03-29T21:11:37.646Z,10.20
2023-03-29T21:14:06.075Z,8.20
2023-03-29T21:16:34.519Z,6.50
2023-03-29T21:19:02.979Z,6.70
2023-03-29T21:21:31.374Z,7.00
2023-03-29T21:23:59.748Z,7.40
2023-03-29T21:26:28.178Z,8.00
2023-03-29T21:28:56.524Z,9.40
2023-03-29T21:31:24.940Z,9.40
2023-03-29T21:33:56.345Z,6.10
2023-03-29T21:36:25.081Z,7.50
2023-03-29T21:38:53.617Z,6.70
2023-03-29T21:41:22.434Z,6.10
2023-03-29T21:43:50.896Z,12.90
2023-03-29T21:46:19.461Z,12.10
2023-03-29T21:48:47.958Z,17.30
2023-03-29T21:51:16.632Z,11.70
2023-03-29T21:53:44.865Z,9.40
2023-03-29T21:56:13.515Z,9.60
2023-03-29T21:58:42.682Z,8.50
2023-03-29T22:01:11.197Z,11.10
2023-03-29T22:03:39.829Z,11.40
2023-03-29T22:06:09.758Z,10.20
2023-03-29T22:08:40.902Z,12.50
2023-03-29T22:11:11.610Z,14.70
2023-03-29T22:13:41.204Z,11.20
2023-03-29T22:16:16.797Z,12.80
2023-03-29T22:18:49.705Z,10.00
2023-03-29T22:21:31.300Z,8.50
2023-03-29T22:24:01.352Z,10.40
2023-03-29T22:26:32.430Z,9.00
2023-03-29T22:29:01.709Z,10.90
2023-03-29T22:31:31.707Z,10.10
2023-03-29T22:34:02.300Z,14.30
2023-03-29T22:36:31.963Z,11.50
2023-03-29T22:39:00.826Z,10.40
2023-03-29T22:41:29.144Z,32.90
2023-03-29T22:43:58.878Z,65.00
2023-03-29T22:46:27.878Z,199.50
2023-03-29T22:48:56.634Z,51.00
2023-03-29T22:51:25.383Z,16.00
2023-03-29T22:53:53.802Z,9.30
2023-03-29T22:56:22.217Z,11.90
2023-03-29T22:58:51.189Z,12.00
2023-03-29T23:01:19.819Z,10.70
2023-03-29T23:03:48.387Z,7.60
2023-03-29T23:06:16.894Z,9.10
2023-03-29T23:08:45.351Z,12.10
2023-03-29T23:11:13.766Z,16.60
2023-03-29T23:13:42.320Z,13.00
2023-03-29T23:16:11.347Z,20.50
2023-03-29T23:18:39.702Z,14.10
2023-03-29T23:21:10.602Z,16.60
2023-03-29T23:23:39.541Z,16.30
2023-03-29T23:26:12.067Z,17.10
2023-03-29T23:28:41.304Z,24.20
2023-03-29T23:31:12.136Z,22.60
2023-03-29T23:33:43.006Z,18.60
2023-03-29T23:36:15.223Z,20.20
2023-03-29T23:41:14.147Z,16.80
2023-03-29T23:43:44.126Z,17.40
2023-03-29T23:46:16.065Z,17.90
2023-03-29T23:51:15.489Z,19.10
2023-03-29T23:53:44.215Z,19.80
2023-03-29T23:56:12.693Z,16.20
2023-03-29T23:58:41.373Z,24.20
